createdAt,value
2023-02-22T00:04:49.860Z,100438.69
2023-02-22T00:09:50.957Z,100444.03
2023-02-22T00:14:53.143Z,100442.22
2023-02-22T00:19:54.295Z,100446.53
2023-02-22T00:24:55.605Z,100446.63
2023-02-22T00:29:57.591Z,100439.75
2023-02-22T00:35:00.177Z,100430.09
2023-02-22T00:40:00.823Z,100432.75
2023-02-22T00:45:03.718Z,100426.72
2023-02-22T00:50:04.597Z,100431.09
2023-02-22T00:55:06.449Z,100432.88
2023-02-22T01:00:12.893Z,100435.44
2023-02-22T01:05:16.353Z,100431.03
2023-02-22T01:10:19.384Z,100430.19
2023-02-22T01:15:22.680Z,100429.31
2023-02-22T01:20:25.513Z,100428.44
2023-02-22T01:25:29.799Z,100426.84
2023-02-22T01:30:34.269Z,100424.97
2023-02-22T01:35:36.592Z,100421.34
2023-02-22T01:40:39.478Z,100429.25
2023-02-22T01:45:48.676Z,100424.94
2023-02-22T01:50:55.225Z,100419.72
2023-02-22T01:55:57.286Z,100418.88
2023-02-22T02:00:59.543Z,100411.97
2023-02-22T02:06:04.009Z,100406.81
2023-02-22T02:11:09.661Z,100406.75
2023-02-22T02:16:11.879Z,100412.78
2023-02-22T02:21:41.453Z,100407.53
2023-02-22T02:27:04.025Z,100411.31
2023-02-22T02:32:33.234Z,100399.06
2023-02-22T02:37:41.918Z,100389.44
2023-02-22T02:42:51.486Z,100388.56
2023-02-22T02:47:58.748Z,100390.38
2023-02-22T02:53:03.417Z,100390.41
2023-02-22T02:58:05.844Z,100390.31
2023-02-22T03:03:23.487Z,100381.81
2023-02-22T03:08:33.485Z,100384.41
2023-02-22T03:13:42.006Z,100384.47
2023-02-22T03:18:52.359Z,100376.56
2023-02-22T03:24:01.799Z,100375.81
2023-02-22T03:29:05.232Z,100378.44
2023-02-22T03:34:12.350Z,100371.47
2023-02-22T03:39:17.110Z,100374.09
2023-02-22T03:44:24.601Z,100373.13
2023-02-22T03:49:36.112Z,100368.88
2023-02-22T03:54:38.542Z,100367.13
2023-02-22T03:59:40.279Z,100366.38
2023-02-22T04:04:42.268Z,100355.13
2023-02-22T04:09:43.228Z,100363.88
2023-02-22T04:14:44.742Z,100360.50
2023-02-22T04:19:46.783Z,100369.25
2023-02-22T04:24:48.974Z,100361.56
2023-02-22T04:29:51.537Z,100362.50
2023-02-22T04:34:53.636Z,100364.41
2023-02-22T04:39:54.395Z,100359.25
2023-02-22T04:44:55.325Z,100360.97
2023-02-22T04:49:57.505Z,100359.16
2023-02-22T04:54:58.322Z,100359.09
2023-02-22T04:59:59.723Z,100359.91
2023-02-22T05:05:01.803Z,100367.75
2023-02-22T05:10:03.257Z,100360.78
2023-02-22T05:15:04.126Z,100366.78
2023-02-22T05:20:08.671Z,100360.66
2023-02-22T05:25:11.333Z,100362.31
2023-02-22T05:30:13.359Z,100362.25
2023-02-22T05:35:16.075Z,100357.00
2023-02-22T05:40:18.369Z,100360.47
2023-02-22T05:45:20.929Z,100355.38
2023-02-22T05:50:23.243Z,100359.75
2023-02-22T05:55:24.936Z,100361.63
2023-02-22T06:00:29.308Z,100359.91
2023-02-22T06:05:32.337Z,100364.22
2023-02-22T06:10:34.379Z,100367.75
2023-02-22T06:15:35.097Z,100371.13
2023-02-22T06:20:37.083Z,100372.00
2023-02-22T06:25:37.733Z,100372.94
2023-02-22T06:30:38.675Z,100374.59
2023-02-22T06:35:40.701Z,100376.28
2023-02-22T06:40:41.673Z,100384.88
2023-02-22T06:45:42.382Z,100384.91
2023-02-22T06:50:44.378Z,100379.69
2023-02-22T06:55:46.831Z,100389.06
2023-02-22T07:00:47.525Z,100392.38
2023-02-22T07:05:49.510Z,100389.59
2023-02-22T07:10:50.902Z,100399.91
2023-02-22T07:15:51.544Z,100397.22
2023-02-22T07:20:54.327Z,100402.31
2023-02-22T07:25:55.064Z,100401.38
2023-02-22T07:30:55.894Z,100394.22
2023-02-22T07:35:57.863Z,100405.44
2023-02-22T07:40:58.942Z,100413.31
2023-02-22T07:46:02.822Z,100413.09
2023-02-22T07:51:05.978Z,100403.50
2023-02-22T07:56:08.834Z,100407.69
2023-02-22T08:01:10.230Z,100399.69
2023-02-22T08:06:12.556Z,100398.69
2023-02-22T08:11:14.648Z,100401.94
2023-02-22T08:16:15.428Z,100398.31
2023-02-22T08:21:18.946Z,100401.84
2023-02-22T08:26:20.829Z,100394.72
2023-02-22T08:31:21.664Z,100399.81
2023-02-22T08:36:23.679Z,100390.75
2023-02-22T08:41:24.329Z,100394.19
2023-02-22T08:46:25.262Z,100393.78
2023-02-22T08:51:27.916Z,100384.28
2023-02-22T08:56:30.053Z,100389.63
2023-02-22T09:01:33.476Z,100386.59
2023-02-22T09:06:36.292Z,100383.69
2023-02-22T09:11:37.013Z,100383.75
2023-02-22T09:16:38.199Z,100378.13
2023-02-22T09:21:41.262Z,100386.66
2023-02-22T09:26:47.794Z,100377.16
2023-02-22T09:31:48.551Z,100381.84
2023-02-22T09:36:51.166Z,100376.97
2023-02-22T09:41:58.742Z,100363.88
2023-02-22T09:46:59.738Z,100355.06
2023-02-22T09:52:06.046Z,100361.63
2023-02-22T09:57:10.641Z,100345.44
2023-02-22T10:02:24.613Z,100344.13
2023-02-22T10:07:31.913Z,100331.94
2023-02-22T10:12:45.138Z,100324.31
2023-02-22T10:17:58.827Z,100328.69
2023-02-22T10:23:12.815Z,100328.69
2023-02-22T10:28:20.750Z,100326.56
2023-02-22T10:33:24.122Z,100326.72
2023-02-22T10:38:28.493Z,100320.31
2023-02-22T10:43:29.318Z,100314.53
2023-02-22T10:48:32.293Z,100311.97
2023-02-22T10:53:37.900Z,100310.00
2023-02-22T10:58:47.920Z,100304.03
2023-02-22T11:03:58.220Z,100302.19
2023-02-22T11:09:11.342Z,100290.03
2023-02-22T11:14:13.213Z,100289.66
2023-02-22T11:19:20.867Z,100286.81
2023-02-22T11:24:30.299Z,100282.72
2023-02-22T11:29:35.704Z,100275.22
2023-02-22T11:34:42.690Z,100274.38
2023-02-22T11:39:45.720Z,100263.84
2023-02-22T11:44:47.021Z,100265.53
2023-02-22T11:49:47.762Z,100265.34
2023-02-22T11:55:04.324Z,100252.28
2023-02-22T12:00:16.721Z,100247.41
2023-02-22T12:05:28.890Z,100249.41
2023-02-22T12:10:47.048Z,100237.38
2023-02-22T12:15:56.248Z,100243.94
2023-02-22T12:21:01.633Z,100241.16
2023-02-22T12:26:11.820Z,100240.63
2023-02-22T12:31:20.704Z,100230.97
2023-02-22T12:36:26.032Z,100223.69
2023-02-22T12:41:38.336Z,100230.94
2023-02-22T12:46:43.018Z,100230.72
2023-02-22T12:51:49.724Z,100225.66
2023-02-22T12:56:56.673Z,100221.84
2023-02-22T13:02:01.957Z,100222.69
2023-02-22T13:07:24.172Z,100217.06
2023-02-22T13:12:36.973Z,100220.88
2023-02-22T13:17:45.054Z,100218.91
2023-02-22T13:22:51.155Z,100216.63
2023-02-22T13:28:00.104Z,100203.25
2023-02-22T13:33:17.890Z,100198.09
2023-02-22T13:38:38.266Z,100203.94
2023-02-22T13:43:59.228Z,100206.66
2023-02-22T13:49:12.958Z,100205.53
2023-02-22T13:54:22.059Z,100203.94
2023-02-22T13:59:28.277Z,100211.63
2023-02-22T14:04:40.685Z,100205.84
2023-02-22T14:09:46.975Z,100209.38
2023-02-22T14:15:28.715Z,100201.97
2023-02-22T14:20:32.510Z,100205.66
2023-02-22T14:25:40.372Z,100194.13
2023-02-22T14:30:42.512Z,100195.44
2023-02-22T14:35:50.180Z,100185.09
2023-02-22T14:40:53.650Z,100184.06
2023-02-22T14:46:00.271Z,100175.28
2023-02-22T14:51:19.083Z,100167.56
2023-02-22T14:56:24.493Z,100167.25
2023-02-22T15:01:47.430Z,100166.50
2023-02-22T15:06:59.952Z,100162.31
2023-02-22T15:12:13.957Z,100163.41
2023-02-22T15:17:20.868Z,100171.50
2023-02-22T15:22:24.975Z,100170.34
2023-02-22T15:27:26.223Z,100172.13
2023-02-22T15:32:36.246Z,100162.34
2023-02-22T15:37:37.038Z,100152.72
2023-02-22T15:42:45.187Z,100149.44
2023-02-22T15:47:48.081Z,100156.16
2023-02-22T15:52:53.110Z,100165.28
2023-02-22T15:57:54.158Z,100159.47
2023-02-22T16:02:58.817Z,100155.47
2023-02-22T16:07:59.623Z,100165.63
2023-02-22T16:13:14.441Z,100161.88
2023-02-22T16:18:33.674Z,100158.84
2023-02-22T16:23:45.961Z,100159.97
2023-02-22T16:28:52.849Z,100168.25
2023-02-22T16:33:55.921Z,100165.13
2023-02-22T16:38:56.633Z,100163.44
2023-02-22T16:43:57.369Z,100162.00
2023-02-22T16:49:03.529Z,100164.59
2023-02-22T16:54:04.197Z,100166.53
2023-02-22T16:59:11.157Z,100160.50
2023-02-22T17:04:17.750Z,100164.16
2023-02-22T17:09:20.085Z,100162.38
2023-02-22T17:14:24.488Z,100172.97
2023-02-22T17:19:26.904Z,100173.94
2023-02-22T17:24:29.222Z,100167.03
2023-02-22T17:29:30.512Z,100172.31
2023-02-22T17:34:32.642Z,100184.44
2023-02-22T17:39:33.511Z,100174.91
2023-02-22T17:44:35.357Z,100172.44
2023-02-22T17:49:37.417Z,100174.41
2023-02-22T17:54:40.330Z,100171.16
2023-02-22T17:59:43.530Z,100177.66
2023-02-22T18:04:45.560Z,100166.59
2023-02-22T18:09:46.337Z,100180.72
2023-02-22T18:14:47.101Z,100173.94
2023-02-22T18:19:49.547Z,100169.75
2023-02-22T18:24:50.293Z,100167.03
2023-02-22T18:29:51.238Z,100162.84
2023-02-22T18:34:53.530Z,100163.75
2023-02-22T18:39:55.450Z,100160.41
2023-02-22T18:45:00.596Z,100157.88
2023-02-22T18:50:02.594Z,100146.53
2023-02-22T18:55:03.332Z,100149.09
2023-02-22T19:00:07.367Z,100143.91
2023-02-22T19:05:10.580Z,100137.09
2023-02-22T19:10:11.612Z,100139.91
2023-02-22T19:15:12.416Z,100139.91
2023-02-22T19:20:14.443Z,100134.66
2023-02-22T19:25:15.193Z,100128.81
2023-02-22T19:30:17.075Z,100135.75
2023-02-22T19:35:26.964Z,100126.28
2023-02-22T19:40:27.743Z,100120.34
2023-02-22T19:45:28.550Z,100123.91
2023-02-22T19:50:30.590Z,100112.56
2023-02-22T19:55:32.357Z,100121.38
2023-02-22T20:00:35.568Z,100114.41
2023-02-22T20:05:41.940Z,100117.06
2023-02-22T20:10:42.636Z,100106.75
2023-02-22T20:15:45.121Z,100122.34
2023-02-22T20:20:47.119Z,100113.72
2023-02-22T20:25:53.793Z,100112.84
2023-02-22T20:30:54.536Z,100116.38
2023-02-22T20:35:56.630Z,100107.97
2023-02-22T20:40:57.327Z,100108.69
2023-02-22T20:46:01.348Z,100110.53
2023-02-22T20:51:07.832Z,100108.81
2023-02-22T20:56:12.321Z,100112.19
2023-02-22T21:01:17.101Z,100107.03
2023-02-22T21:06:21.522Z,100105.38
2023-02-22T21:11:23.821Z,100109.63
2023-02-22T21:16:26.201Z,100105.34
2023-02-22T21:21:29.225Z,100099.31
2023-02-22T21:26:31.695Z,100103.63
2023-02-22T21:31:34.599Z,100099.22
2023-02-22T21:36:38.862Z,100099.16
2023-02-22T21:41:40.936Z,100090.53
2023-02-22T21:46:41.860Z,100086.25
2023-02-22T21:51:44.743Z,100076.84
2023-02-22T21:56:45.414Z,100080.28
2023-02-22T22:01:48.205Z,100074.19
2023-02-22T22:06:53.003Z,100074.25
2023-02-22T22:11:58.279Z,100076.03
2023-02-22T22:17:01.034Z,100079.50
2023-02-22T22:22:03.065Z,100068.41
2023-02-22T22:27:06.519Z,100070.00
2023-02-22T22:32:07.601Z,100065.78
2023-02-22T22:37:09.654Z,100070.84
2023-02-22T22:42:10.377Z,100070.13
2023-02-22T22:47:13.149Z,100076.19
2023-02-22T22:52:19.012Z,100076.16
2023-02-22T22:57:20.020Z,100075.44
2023-02-22T23:02:21.274Z,100078.91
2023-02-22T23:07:23.352Z,100084.94
2023-02-22T23:12:31.436Z,100076.34
2023-02-22T23:17:41.054Z,100074.66
2023-02-22T23:22:47.408Z,100085.91
2023-02-22T23:27:48.389Z,100078.94
2023-02-22T23:32:49.633Z,100085.84
2023-02-22T23:37:53.473Z,100088.50
2023-02-22T23:42:54.867Z,100078.97
2023-02-22T23:47:57.159Z,100078.19
2023-02-22T23:53:03.514Z,100083.38
2023-02-22T23:58:04.316Z,100081.69
